sensor_id;sensor_type;location;lat;lon;timestamp;P1;durP1;ratioP1;P2;durP2;ratioP2
78222;SDS011;67497;53.058;21.618;2023-04-01T00:00:52;17.23;;;9.82;;
78222;SDS011;67497;53.058;21.618;2023-04-01T00:02:54;15.57;;;9.70;;
78222;SDS011;67497;53.058;21.618;2023-04-01T00:04:54;17.10;;;9.55;;
78222;SDS011;67497;53.058;21.618;2023-04-01T00:06:55;15.15;;;9.05;;
78222;SDS011;67497;53.058;21.618;2023-04-01T00:08:56;15.05;;;9.23;;
78222;SDS011;67497;53.058;21.618;2023-04-01T00:10:57;15.25;;;9.15;;
78222;SDS011;67497;53.058;21.618;2023-04-01T00:12:58;17.13;;;9.13;;
78222;SDS011;67497;53.058;21.618;2023-04-01T00:14:58;14.75;;;9.05;;
78222;SDS011;67497;53.058;21.618;2023-04-01T00:16:59;20.10;;;10.57;;
78222;SDS011;67497;53.058;21.618;2023-04-01T00:19:00;16.08;;;9.75;;
78222;SDS011;67497;53.058;21.618;2023-04-01T00:21:00;13.63;;;9.40;;
78222;SDS011;67497;53.058;21.618;2023-04-01T00:23:01;15.80;;;9.13;;
78222;SDS011;67497;53.058;21.618;2023-04-01T00:25:02;13.23;;;8.95;;
78222;SDS011;67497;53.058;21.618;2023-04-01T00:29:04;21.35;;;9.88;;
78222;SDS011;67497;53.058;21.618;2023-04-01T00:31:06;12.45;;;8.68;;
78222;SDS011;67497;53.058;21.618;2023-04-01T00:33:07;13.32;;;9.15;;
78222;SDS011;67497;53.058;21.618;2023-04-01T00:35:08;14.75;;;8.43;;
78222;SDS011;67497;53.058;21.618;2023-04-01T00:37:09;16.17;;;9.15;;
78222;SDS011;67497;53.058;21.618;2023-04-01T00:39:09;15.00;;;9.45;;
78222;SDS011;67497;53.058;21.618;2023-04-01T00:41:11;15.07;;;8.75;;
78222;SDS011;67497;53.058;21.618;2023-04-01T00:43:17;12.25;;;8.27;;
78222;SDS011;67497;53.058;21.618;2023-04-01T00:45:30;16.85;;;9.68;;
78222;SDS011;67497;53.058;21.618;2023-04-01T00:47:31;13.07;;;8.93;;
78222;SDS011;67497;53.058;21.618;2023-04-01T00:49:39;13.63;;;8.43;;
78222;SDS011;67497;53.058;21.618;2023-04-01T00:51:42;15.02;;;9.45;;
78222;SDS011;67497;53.058;21.618;2023-04-01T00:53:47;15.32;;;9.68;;
78222;SDS011;67497;53.058;21.618;2023-04-01T00:56:07;12.48;;;8.80;;
78222;SDS011;67497;53.058;21.618;2023-04-01T00:58:15;13.68;;;8.65;;
78222;SDS011;67497;53.058;21.618;2023-04-01T01:00:19;14.80;;;9.63;;
78222;SDS011;67497;53.058;21.618;2023-04-01T01:02:21;13.65;;;9.50;;
78222;SDS011;67497;53.058;21.618;2023-04-01T01:04:24;13.27;;;9.05;;
78222;SDS011;67497;53.058;21.618;2023-04-01T01:11:17;11.90;;;7.90;;
78222;SDS011;67497;53.058;21.618;2023-04-01T01:13:32;15.98;;;9.00;;
78222;SDS011;67497;53.058;21.618;2023-04-01T01:15:51;12.27;;;8.68;;
78222;SDS011;67497;53.058;21.618;2023-04-01T01:18:09;12.57;;;8.15;;
78222;SDS011;67497;53.058;21.618;2023-04-01T01:22:39;14.68;;;8.27;;
78222;SDS011;67497;53.058;21.618;2023-04-01T01:27:18;15.70;;;8.35;;
78222;SDS011;67497;53.058;21.618;2023-04-01T01:36:42;12.35;;;8.93;;
78222;SDS011;67497;53.058;21.618;2023-04-01T01:38:46;16.20;;;8.27;;
78222;SDS011;67497;53.058;21.618;2023-04-01T01:40:50;13.52;;;8.50;;
78222;SDS011;67497;53.058;21.618;2023-04-01T01:42:55;19.20;;;9.60;;
78222;SDS011;67497;53.058;21.618;2023-04-01T01:44:59;13.52;;;8.85;;
78222;SDS011;67497;53.058;21.618;2023-04-01T01:47:01;13.43;;;8.77;;
78222;SDS011;67497;53.058;21.618;2023-04-01T01:49:02;12.52;;;8.00;;
78222;SDS011;67497;53.058;21.618;2023-04-01T01:51:05;14.07;;;8.38;;
78222;SDS011;67497;53.058;21.618;2023-04-01T01:53:07;12.40;;;8.68;;
78222;SDS011;67497;53.058;21.618;2023-04-01T01:55:27;12.05;;;8.63;;
78222;SDS011;67497;53.058;21.618;2023-04-01T01:57:31;12.88;;;8.32;;
78222;SDS011;67497;53.058;21.618;2023-04-01T01:59:35;18.40;;;9.55;;
78222;SDS011;67497;53.058;21.618;2023-04-01T02:01:41;13.13;;;8.18;;
78222;SDS011;67497;53.058;21.618;2023-04-01T02:03:44;12.80;;;8.25;;
78222;SDS011;67497;53.058;21.618;2023-04-01T02:05:46;15.20;;;8.98;;
78222;SDS011;67497;53.058;21.618;2023-04-01T02:08:01;13.02;;;8.88;;
78222;SDS011;67497;53.058;21.618;2023-04-01T02:10:06;12.88;;;7.60;;
78222;SDS011;67497;53.058;21.618;2023-04-01T02:12:09;13.82;;;8.73;;
78222;SDS011;67497;53.058;21.618;2023-04-01T02:14:14;15.98;;;8.43;;
78222;SDS011;67497;53.058;21.618;2023-04-01T02:16:33;13.15;;;8.02;;
78222;SDS011;67497;53.058;21.618;2023-04-01T02:18:39;12.85;;;8.55;;
78222;SDS011;67497;53.058;21.618;2023-04-01T02:20:40;12.77;;;8.70;;
78222;SDS011;67497;53.058;21.618;2023-04-01T02:22:53;12.20;;;8.50;;
78222;SDS011;67497;53.058;21.618;2023-04-01T02:25:01;14.40;;;8.07;;
78222;SDS011;67497;53.058;21.618;2023-04-01T02:27:08;11.77;;;7.70;;
78222;SDS011;67497;53.058;21.618;2023-04-01T02:29:10;11.55;;;7.82;;
78222;SDS011;67497;53.058;21.618;2023-04-01T02:31:12;13.73;;;8.32;;
78222;SDS011;67497;53.058;21.618;2023-04-01T02:33:14;11.57;;;7.68;;
78222;SDS011;67497;53.058;21.618;2023-04-01T02:35:16;12.98;;;8.98;;
78222;SDS011;67497;53.058;21.618;2023-04-01T02:39:18;13.45;;;8.07;;
78222;SDS011;67497;53.058;21.618;2023-04-01T02:41:19;13.25;;;8.07;;
78222;SDS011;67497;53.058;21.618;2023-04-01T02:43:20;11.77;;;7.78;;
78222;SDS011;67497;53.058;21.618;2023-04-01T02:45:21;12.52;;;8.23;;
78222;SDS011;67497;53.058;21.618;2023-04-01T02:47:22;12.15;;;8.00;;
78222;SDS011;67497;53.058;21.618;2023-04-01T02:49:22;13.15;;;8.25;;
78222;SDS011;67497;53.058;21.618;2023-04-01T02:51:23;12.85;;;8.43;;
78222;SDS011;67497;53.058;21.618;2023-04-01T02:53:23;14.52;;;8.02;;
78222;SDS011;67497;53.058;21.618;2023-04-01T02:55:24;13.10;;;8.35;;
78222;SDS011;67497;53.058;21.618;2023-04-01T02:57:25;11.65;;;7.68;;
78222;SDS011;67497;53.058;21.618;2023-04-01T02:59:25;11.55;;;7.40;;
78222;SDS011;67497;53.058;21.618;2023-04-01T03:01:26;11.00;;;8.48;;
78222;SDS011;67497;53.058;21.618;2023-04-01T03:03:26;12.60;;;7.93;;
78222;SDS011;67497;53.058;21.618;2023-04-01T03:05:27;12.52;;;8.95;;
78222;SDS011;67497;53.058;21.618;2023-04-01T03:07:28;10.93;;;7.30;;
78222;SDS011;67497;53.058;21.618;2023-04-01T03:09:28;13.43;;;8.13;;
78222;SDS011;67497;53.058;21.618;2023-04-01T03:11:29;11.20;;;7.88;;
78222;SDS011;67497;53.058;21.618;2023-04-01T03:13:29;15.70;;;8.70;;
78222;SDS011;67497;53.058;21.618;2023-04-01T03:15:30;11.80;;;8.00;;
78222;SDS011;67497;53.058;21.618;2023-04-01T03:17:30;13.55;;;8.35;;
78222;SDS011;67497;53.058;21.618;2023-04-01T03:19:31;13.85;;;8.63;;
78222;SDS011;67497;53.058;21.618;2023-04-01T03:21:31;12.93;;;9.02;;
78222;SDS011;67497;53.058;21.618;2023-04-01T03:23:32;12.68;;;7.70;;
78222;SDS011;67497;53.058;21.618;2023-04-01T03:25:32;11.07;;;8.02;;
78222;SDS011;67497;53.058;21.618;2023-04-01T03:27:33;13.40;;;7.75;;
78222;SDS011;67497;53.058;21.618;2023-04-01T03:29:35;10.13;;;7.30;;
78222;SDS011;67497;53.058;21.618;2023-04-01T03:31:36;10.85;;;8.32;;
78222;SDS011;67497;53.058;21.618;2023-04-01T03:33:36;10.68;;;7.57;;
78222;SDS011;67497;53.058;21.618;2023-04-01T03:35:37;10.65;;;7.35;;
78222;SDS011;67497;53.058;21.618;2023-04-01T03:37:37;13.82;;;8.15;;
78222;SDS011;67497;53.058;21.618;2023-04-01T03:39:38;12.70;;;8.45;;
78222;SDS011;67497;53.058;21.618;2023-04-01T03:41:38;12.45;;;8.18;;
78222;SDS011;67497;53.058;21.618;2023-04-01T03:43:39;14.02;;;8.80;;
78222;SDS011;67497;53.058;21.618;2023-04-01T03:45:43;12.80;;;8.13;;
78222;SDS011;67497;53.058;21.618;2023-04-01T03:47:45;12.32;;;8.00;;
78222;SDS011;67497;53.058;21.618;2023-04-01T03:49:45;13.35;;;8.02;;
78222;SDS011;67497;53.058;21.618;2023-04-01T03:51:46;14.82;;;8.45;;
78222;SDS011;67497;53.058;21.618;2023-04-01T03:53:46;11.13;;;7.72;;
78222;SDS011;67497;53.058;21.618;2023-04-01T03:55:48;10.77;;;8.15;;
78222;SDS011;67497;53.058;21.618;2023-04-01T03:57:51;11.32;;;7.75;;
78222;SDS011;67497;53.058;21.618;2023-04-01T03:59:51;11.52;;;7.97;;
78222;SDS011;67497;53.058;21.618;2023-04-01T04:01:52;11.30;;;8.45;;
78222;SDS011;67497;53.058;21.618;2023-04-01T04:03:52;12.52;;;8.85;;
78222;SDS011;67497;53.058;21.618;2023-04-01T04:05:53;11.98;;;8.00;;
78222;SDS011;67497;53.058;21.618;2023-04-01T04:07:54;13.88;;;8.23;;
78222;SDS011;67497;53.058;21.618;2023-04-01T04:09:55;13.15;;;8.02;;
78222;SDS011;67497;53.058;21.618;2023-04-01T04:11:55;11.23;;;8.18;;
78222;SDS011;67497;53.058;21.618;2023-04-01T04:13:56;13.38;;;8.07;;
78222;SDS011;67497;53.058;21.618;2023-04-01T04:15:56;12.95;;;8.27;;
78222;SDS011;67497;53.058;21.618;2023-04-01T04:17:57;11.82;;;7.85;;
78222;SDS011;67497;53.058;21.618;2023-04-01T04:19:57;11.00;;;8.15;;
78222;SDS011;67497;53.058;21.618;2023-04-01T04:21:58;13.20;;;8.35;;
78222;SDS011;67497;53.058;21.618;2023-04-01T04:24:00;12.80;;;8.32;;
78222;SDS011;67497;53.058;21.618;2023-04-01T04:26:03;13.02;;;8.32;;
78222;SDS011;67497;53.058;21.618;2023-04-01T04:28:05;13.93;;;8.27;;
78222;SDS011;67497;53.058;21.618;2023-04-01T04:30:06;12.88;;;8.30;;
78222;SDS011;67497;53.058;21.618;2023-04-01T04:32:08;12.75;;;8.55;;
78222;SDS011;67497;53.058;21.618;2023-04-01T04:34:08;10.95;;;7.88;;
78222;SDS011;67497;53.058;21.618;2023-04-01T04:36:09;12.45;;;8.85;;
78222;SDS011;67497;53.058;21.618;2023-04-01T04:38:09;14.55;;;8.45;;
78222;SDS011;67497;53.058;21.618;2023-04-01T04:40:10;11.30;;;7.35;;
78222;SDS011;67497;53.058;21.618;2023-04-01T04:42:11;9.77;;;8.10;;
78222;SDS011;67497;53.058;21.618;2023-04-01T04:44:11;10.57;;;7.57;;
78222;SDS011;67497;53.058;21.618;2023-04-01T04:46:12;11.57;;;8.00;;
78222;SDS011;67497;53.058;21.618;2023-04-01T04:48:13;12.20;;;8.23;;
78222;SDS011;67497;53.058;21.618;2023-04-01T04:50:18;12.70;;;9.23;;
78222;SDS011;67497;53.058;21.618;2023-04-01T04:52:19;15.07;;;8.55;;
78222;SDS011;67497;53.058;21.618;2023-04-01T04:54:20;12.43;;;8.05;;
78222;SDS011;67497;53.058;21.618;2023-04-01T04:56:20;11.93;;;8.32;;
78222;SDS011;67497;53.058;21.618;2023-04-01T04:58:22;12.15;;;7.75;;
78222;SDS011;67497;53.058;21.618;2023-04-01T05:00:22;11.45;;;8.15;;
78222;SDS011;67497;53.058;21.618;2023-04-01T05:02:23;11.18;;;7.32;;
78222;SDS011;67497;53.058;21.618;2023-04-01T05:04:23;13.70;;;8.23;;
78222;SDS011;67497;53.058;21.618;2023-04-01T05:06:24;13.18;;;8.27;;
78222;SDS011;67497;53.058;21.618;2023-04-01T05:08:25;14.40;;;8.95;;
78222;SDS011;67497;53.058;21.618;2023-04-01T05:10:26;11.20;;;8.27;;
78222;SDS011;67497;53.058;21.618;2023-04-01T05:12:26;14.00;;;8.50;;
78222;SDS011;67497;53.058;21.618;2023-04-01T05:14:27;14.23;;;8.98;;
78222;SDS011;67497;53.058;21.618;2023-04-01T05:16:27;11.23;;;7.55;;
78222;SDS011;67497;53.058;21.618;2023-04-01T05:18:28;14.20;;;9.52;;
78222;SDS011;67497;53.058;21.618;2023-04-01T05:20:29;14.77;;;9.88;;
78222;SDS011;67497;53.058;21.618;2023-04-01T05:22:29;11.82;;;7.72;;
78222;SDS011;67497;53.058;21.618;2023-04-01T05:24:30;14.13;;;9.32;;
78222;SDS011;67497;53.058;21.618;2023-04-01T05:26:30;12.73;;;9.85;;
78222;SDS011;67497;53.058;21.618;2023-04-01T05:28:32;13.32;;;8.30;;
78222;SDS011;67497;53.058;21.618;2023-04-01T05:30:33;12.60;;;8.32;;
78222;SDS011;67497;53.058;21.618;2023-04-01T05:32:33;11.35;;;8.27;;
78222;SDS011;67497;53.058;21.618;2023-04-01T05:34:34;12.25;;;7.95;;
78222;SDS011;67497;53.058;21.618;2023-04-01T05:36:35;13.48;;;8.25;;
78222;SDS011;67497;53.058;21.618;2023-04-01T05:38:35;11.57;;;7.93;;
78222;SDS011;67497;53.058;21.618;2023-04-01T05:40:36;11.73;;;7.78;;
78222;SDS011;67497;53.058;21.618;2023-04-01T05:42:36;12.07;;;8.73;;
78222;SDS011;67497;53.058;21.618;2023-04-01T05:44:37;14.20;;;8.85;;
78222;SDS011;67497;53.058;21.618;2023-04-01T05:46:37;12.25;;;9.15;;
78222;SDS011;67497;53.058;21.618;2023-04-01T05:48:38;15.43;;;9.98;;
78222;SDS011;67497;53.058;21.618;2023-04-01T05:50:39;11.80;;;8.48;;
78222;SDS011;67497;53.058;21.618;2023-04-01T05:52:41;14.27;;;8.88;;
78222;SDS011;67497;53.058;21.618;2023-04-01T05:54:42;14.80;;;9.13;;
78222;SDS011;67497;53.058;21.618;2023-04-01T05:56:42;14.68;;;8.52;;
78222;SDS011;67497;53.058;21.618;2023-04-01T05:58:43;12.20;;;8.27;;
78222;SDS011;67497;53.058;21.618;2023-04-01T06:00:50;12.55;;;8.07;;
78222;SDS011;67497;53.058;21.618;2023-04-01T06:02:51;13.48;;;9.88;;
78222;SDS011;67497;53.058;21.618;2023-04-01T06:05:01;14.77;;;9.27;;
78222;SDS011;67497;53.058;21.618;2023-04-01T06:07:15;12.98;;;8.20;;
78222;SDS011;67497;53.058;21.618;2023-04-01T06:09:27;14.02;;;9.15;;
78222;SDS011;67497;53.058;21.618;2023-04-01T06:18:38;15.77;;;10.43;;
78222;SDS011;67497;53.058;21.618;2023-04-01T06:27:39;14.63;;;9.60;;
78222;SDS011;67497;53.058;21.618;2023-04-01T06:36:46;11.25;;;9.02;;
78222;SDS011;67497;53.058;21.618;2023-04-01T06:38:55;14.20;;;8.95;;
78222;SDS011;67497;53.058;21.618;2023-04-01T06:45:47;13.65;;;8.95;;
78222;SDS011;67497;53.058;21.618;2023-04-01T06:48:15;13.73;;;8.07;;
78222;SDS011;67497;53.058;21.618;2023-04-01T06:55:00;11.85;;;7.90;;
78222;SDS011;67497;53.058;21.618;2023-04-01T06:59:41;13.95;;;8.82;;
78222;SDS011;67497;53.058;21.618;2023-04-01T07:01:49;12.93;;;8.73;;
78222;SDS011;67497;53.058;21.618;2023-04-01T07:04:00;15.98;;;9.18;;
78222;SDS011;67497;53.058;21.618;2023-04-01T07:06:08;15.27;;;9.52;;
78222;SDS011;67497;53.058;21.618;2023-04-01T07:08:25;12.90;;;9.27;;
78222;SDS011;67497;53.058;21.618;2023-04-01T07:10:41;14.15;;;9.82;;
78222;SDS011;67497;53.058;21.618;2023-04-01T07:12:51;16.52;;;8.27;;
78222;SDS011;67497;53.058;21.618;2023-04-01T07:14:55;13.77;;;9.65;;
78222;SDS011;67497;53.058;21.618;2023-04-01T07:17:00;13.77;;;9.32;;
78222;SDS011;67497;53.058;21.618;2023-04-01T07:21:46;13.63;;;8.40;;
78222;SDS011;67497;53.058;21.618;2023-04-01T07:23:45;14.38;;;9.43;;
78222;SDS011;67497;53.058;21.618;2023-04-01T07:25:48;14.63;;;9.05;;
78222;SDS011;67497;53.058;21.618;2023-04-01T07:27:56;16.83;;;10.00;;
78222;SDS011;67497;53.058;21.618;2023-04-01T07:30:18;12.15;;;8.52;;
78222;SDS011;67497;53.058;21.618;2023-04-01T07:32:38;12.05;;;8.82;;
78222;SDS011;67497;53.058;21.618;2023-04-01T07:37:02;12.02;;;8.43;;
78222;SDS011;67497;53.058;21.618;2023-04-01T07:39:24;13.40;;;9.73;;
78222;SDS011;67497;53.058;21.618;2023-04-01T07:44:13;15.30;;;9.70;;
78222;SDS011;67497;53.058;21.618;2023-04-01T07:49:27;14.90;;;9.15;;
78222;SDS011;67497;53.058;21.618;2023-04-01T08:04:52;12.50;;;8.63;;
78222;SDS011;67497;53.058;21.618;2023-04-01T08:09:19;13.93;;;8.45;;
78222;SDS011;67497;53.058;21.618;2023-04-01T08:11:45;12.90;;;8.23;;
78222;SDS011;67497;53.058;21.618;2023-04-01T08:21:12;13.60;;;8.82;;
78222;SDS011;67497;53.058;21.618;2023-04-01T08:23:37;15.93;;;9.25;;
78222;SDS011;67497;53.058;21.618;2023-04-01T08:25:50;15.10;;;8.75;;
78222;SDS011;67497;53.058;21.618;2023-04-01T08:28:39;15.25;;;8.80;;
78222;SDS011;67497;53.058;21.618;2023-04-01T08:32:39;15.00;;;9.10;;
78222;SDS011;67497;53.058;21.618;2023-04-01T08:34:44;14.70;;;8.63;;
78222;SDS011;67497;53.058;21.618;2023-04-01T08:39:51;12.85;;;9.35;;
78222;SDS011;67497;53.058;21.618;2023-04-01T08:44:43;13.00;;;8.48;;
78222;SDS011;67497;53.058;21.618;2023-04-01T09:00:48;15.98;;;9.93;;
78222;SDS011;67497;53.058;21.618;2023-04-01T09:03:08;16.38;;;9.57;;
78222;SDS011;67497;53.058;21.618;2023-04-01T09:41:17;13.88;;;8.35;;
78222;SDS011;67497;53.058;21.618;2023-04-01T09:43:39;13.80;;;8.02;;
78222;SDS011;67497;53.058;21.618;2023-04-01T09:46:19;14.93;;;8.20;;
78222;SDS011;67497;53.058;21.618;2023-04-01T10:00:39;13.15;;;7.20;;
78222;SDS011;67497;53.058;21.618;2023-04-01T10:47:07;19.08;;;9.88;;
78222;SDS011;67497;53.058;21.618;2023-04-01T11:23:58;10.85;;;5.65;;
78222;SDS011;67497;53.058;21.618;2023-04-01T11:26:02;13.25;;;6.07;;
78222;SDS011;67497;53.058;21.618;2023-04-01T11:30:38;10.57;;;5.57;;
78222;SDS011;67497;53.058;21.618;2023-04-01T11:44:35;13.88;;;6.10;;
78222;SDS011;67497;53.058;21.618;2023-04-01T11:53:47;7.30;;;5.18;;
78222;SDS011;67497;53.058;21.618;2023-04-01T11:58:23;9.93;;;4.90;;
78222;SDS011;67497;53.058;21.618;2023-04-01T12:10:21;8.98;;;4.68;;
78222;SDS011;67497;53.058;21.618;2023-04-01T12:13:24;6.90;;;4.72;;
78222;SDS011;67497;53.058;21.618;2023-04-01T12:15:31;9.27;;;4.60;;
78222;SDS011;67497;53.058;21.618;2023-04-01T12:18:23;9.50;;;4.10;;
78222;SDS011;67497;53.058;21.618;2023-04-01T12:20:39;7.03;;;4.45;;
78222;SDS011;67497;53.058;21.618;2023-04-01T12:23:07;14.55;;;4.57;;
78222;SDS011;67497;53.058;21.618;2023-04-01T12:28:25;10.93;;;4.68;;
78222;SDS011;67497;53.058;21.618;2023-04-01T12:30:38;9.18;;;4.55;;
78222;SDS011;67497;53.058;21.618;2023-04-01T12:42:07;7.97;;;4.05;;
78222;SDS011;67497;53.058;21.618;2023-04-01T12:46:32;6.78;;;4.20;;
78222;SDS011;67497;53.058;21.618;2023-04-01T12:48:51;8.63;;;4.40;;
78222;SDS011;67497;53.058;21.618;2023-04-01T12:56:04;8.70;;;4.88;;
78222;SDS011;67497;53.058;21.618;2023-04-01T13:16:27;10.00;;;4.03;;
78222;SDS011;67497;53.058;21.618;2023-04-01T13:27:42;7.38;;;4.70;;
78222;SDS011;67497;53.058;21.618;2023-04-01T13:39:45;9.23;;;8.38;;
78222;SDS011;67497;53.058;21.618;2023-04-01T13:44:09;9.02;;;7.72;;
78222;SDS011;67497;53.058;21.618;2023-04-01T14:02:50;6.68;;;3.75;;
78222;SDS011;67497;53.058;21.618;2023-04-01T14:07:56;6.07;;;3.33;;
78222;SDS011;67497;53.058;21.618;2023-04-01T14:10:22;10.55;;;4.07;;
78222;SDS011;67497;53.058;21.618;2023-04-01T14:12:56;6.68;;;3.80;;
78222;SDS011;67497;53.058;21.618;2023-04-01T14:27:13;9.35;;;5.35;;
78222;SDS011;67497;53.058;21.618;2023-04-01T14:29:31;13.73;;;5.38;;
78222;SDS011;67497;53.058;21.618;2023-04-01T14:36:54;7.65;;;4.85;;
78222;SDS011;67497;53.058;21.618;2023-04-01T14:43:41;10.15;;;4.82;;
78222;SDS011;67497;53.058;21.618;2023-04-01T14:45:52;8.57;;;4.50;;
78222;SDS011;67497;53.058;21.618;2023-04-01T14:50:29;8.25;;;5.20;;
78222;SDS011;67497;53.058;21.618;2023-04-01T14:52:41;7.32;;;4.38;;
78222;SDS011;67497;53.058;21.618;2023-04-01T14:54:49;8.20;;;5.30;;
78222;SDS011;67497;53.058;21.618;2023-04-01T15:26:28;7.57;;;4.20;;
78222;SDS011;67497;53.058;21.618;2023-04-01T15:31:41;8.25;;;4.50;;
78222;SDS011;67497;53.058;21.618;2023-04-01T15:33:55;10.43;;;3.63;;
78222;SDS011;67497;53.058;21.618;2023-04-01T15:36:34;11.32;;;4.30;;
78222;SDS011;67497;53.058;21.618;2023-04-01T15:41:43;8.02;;;3.22;;
78222;SDS011;67497;53.058;21.618;2023-04-01T15:43:35;4.82;;;3.50;;
78222;SDS011;67497;53.058;21.618;2023-04-01T15:57:14;7.30;;;3.72;;
78222;SDS011;67497;53.058;21.618;2023-04-01T16:01:58;5.30;;;3.13;;
78222;SDS011;67497;53.058;21.618;2023-04-01T16:20:18;4.57;;;2.72;;
78222;SDS011;67497;53.058;21.618;2023-04-01T16:22:49;6.20;;;3.20;;
78222;SDS011;67497;53.058;21.618;2023-04-01T16:27:02;5.65;;;2.90;;
78222;SDS011;67497;53.058;21.618;2023-04-01T16:36:28;8.85;;;3.70;;
78222;SDS011;67497;53.058;21.618;2023-04-01T16:38:40;5.80;;;3.30;;
78222;SDS011;67497;53.058;21.618;2023-04-01T16:47:45;7.28;;;3.75;;
78222;SDS011;67497;53.058;21.618;2023-04-01T16:49:53;7.13;;;4.10;;
78222;SDS011;67497;53.058;21.618;2023-04-01T16:52:04;8.30;;;3.78;;
78222;SDS011;67497;53.058;21.618;2023-04-01T16:56:23;6.82;;;3.72;;
78222;SDS011;67497;53.058;21.618;2023-04-01T16:58:33;5.90;;;3.75;;
78222;SDS011;67497;53.058;21.618;2023-04-01T17:00:38;9.27;;;4.07;;
78222;SDS011;67497;53.058;21.618;2023-04-01T17:03:11;6.85;;;3.38;;
78222;SDS011;67497;53.058;21.618;2023-04-01T17:05:09;8.75;;;4.20;;
78222;SDS011;67497;53.058;21.618;2023-04-01T17:09:47;12.10;;;4.10;;
78222;SDS011;67497;53.058;21.618;2023-04-01T17:16:39;6.20;;;3.78;;
78222;SDS011;67497;53.058;21.618;2023-04-01T17:19:41;8.70;;;3.83;;
78222;SDS011;67497;53.058;21.618;2023-04-01T17:23:50;6.35;;;3.95;;
78222;SDS011;67497;53.058;21.618;2023-04-01T17:26:16;7.22;;;3.72;;
78222;SDS011;67497;53.058;21.618;2023-04-01T17:36:36;8.98;;;4.25;;
78222;SDS011;67497;53.058;21.618;2023-04-01T17:41:24;8.30;;;4.13;;
78222;SDS011;67497;53.058;21.618;2023-04-01T17:46:10;6.15;;;4.20;;
78222;SDS011;67497;53.058;21.618;2023-04-01T17:52:43;8.45;;;4.25;;
78222;SDS011;67497;53.058;21.618;2023-04-01T17:55:22;9.65;;;4.00;;
78222;SDS011;67497;53.058;21.618;2023-04-01T17:59:47;7.78;;;4.35;;
78222;SDS011;67497;53.058;21.618;2023-04-01T18:02:21;6.13;;;4.00;;
78222;SDS011;67497;53.058;21.618;2023-04-01T18:04:54;6.50;;;3.95;;
78222;SDS011;67497;53.058;21.618;2023-04-01T18:07:34;7.32;;;3.85;;
78222;SDS011;67497;53.058;21.618;2023-04-01T18:09:37;8.15;;;4.75;;
78222;SDS011;67497;53.058;21.618;2023-04-01T18:23:49;7.03;;;4.15;;
78222;SDS011;67497;53.058;21.618;2023-04-01T18:28:48;8.23;;;4.50;;
78222;SDS011;67497;53.058;21.618;2023-04-01T18:33:09;9.88;;;5.03;;
78222;SDS011;67497;53.058;21.618;2023-04-01T18:35:27;8.23;;;4.97;;
78222;SDS011;67497;53.058;21.618;2023-04-01T18:37:32;7.90;;;4.68;;
78222;SDS011;67497;53.058;21.618;2023-04-01T18:39:42;8.30;;;4.13;;
78222;SDS011;67497;53.058;21.618;2023-04-01T18:47:02;9.27;;;5.13;;
78222;SDS011;67497;53.058;21.618;2023-04-01T18:53:35;9.95;;;4.78;;
78222;SDS011;67497;53.058;21.618;2023-04-01T18:55:49;8.13;;;4.30;;
78222;SDS011;67497;53.058;21.618;2023-04-01T18:58:16;9.68;;;4.65;;
78222;SDS011;67497;53.058;21.618;2023-04-01T19:00:38;8.30;;;4.63;;
78222;SDS011;67497;53.058;21.618;2023-04-01T19:02:45;7.22;;;3.70;;
78222;SDS011;67497;53.058;21.618;2023-04-01T19:09:43;10.55;;;4.50;;
78222;SDS011;67497;53.058;21.618;2023-04-01T19:12:09;26.77;;;6.65;;
78222;SDS011;67497;53.058;21.618;2023-04-01T19:17:07;7.32;;;4.07;;
78222;SDS011;67497;53.058;21.618;2023-04-01T19:19:21;8.18;;;5.00;;
78222;SDS011;67497;53.058;21.618;2023-04-01T19:26:11;13.48;;;5.60;;
78222;SDS011;67497;53.058;21.618;2023-04-01T19:28:23;9.35;;;4.25;;
78222;SDS011;67497;53.058;21.618;2023-04-01T19:31:02;12.55;;;6.05;;
78222;SDS011;67497;53.058;21.618;2023-04-01T19:33:12;11.02;;;5.47;;
78222;SDS011;67497;53.058;21.618;2023-04-01T19:35:25;11.05;;;4.50;;
78222;SDS011;67497;53.058;21.618;2023-04-01T19:44:46;9.18;;;4.72;;
78222;SDS011;67497;53.058;21.618;2023-04-01T19:46:51;7.63;;;4.63;;
78222;SDS011;67497;53.058;21.618;2023-04-01T19:51:23;29.88;;;11.45;;
78222;SDS011;67497;53.058;21.618;2023-04-01T19:53:49;41.47;;;13.93;;
78222;SDS011;67497;53.058;21.618;2023-04-01T19:56:14;39.03;;;13.63;;
78222;SDS011;67497;53.058;21.618;2023-04-01T19:58:22;33.10;;;10.80;;
78222;SDS011;67497;53.058;21.618;2023-04-01T20:02:39;35.92;;;9.02;;
78222;SDS011;67497;53.058;21.618;2023-04-01T20:04:58;26.67;;;11.05;;
78222;SDS011;67497;53.058;21.618;2023-04-01T20:09:42;33.92;;;10.73;;
78222;SDS011;67497;53.058;21.618;2023-04-01T20:12:21;64.22;;;19.52;;
78222;SDS011;67497;53.058;21.618;2023-04-01T20:19:01;84.97;;;22.50;;
78222;SDS011;67497;53.058;21.618;2023-04-01T20:21:03;74.47;;;22.80;;
78222;SDS011;67497;53.058;21.618;2023-04-01T20:23:21;68.38;;;22.23;;
78222;SDS011;67497;53.058;21.618;2023-04-01T20:30:04;65.40;;;20.00;;
78222;SDS011;67497;53.058;21.618;2023-04-01T20:42:17;59.10;;;19.35;;
78222;SDS011;67497;53.058;21.618;2023-04-01T20:44:29;67.40;;;19.75;;
78222;SDS011;67497;53.058;21.618;2023-04-01T20:47:10;49.22;;;18.92;;
78222;SDS011;67497;53.058;21.618;2023-04-01T20:51:43;55.60;;;21.80;;
78222;SDS011;67497;53.058;21.618;2023-04-01T20:58:57;51.00;;;23.17;;
78222;SDS011;67497;53.058;21.618;2023-04-01T21:24:33;22.20;;;9.25;;
78222;SDS011;67497;53.058;21.618;2023-04-01T21:32:11;24.13;;;9.00;;
78222;SDS011;67497;53.058;21.618;2023-04-01T21:34:05;24.77;;;7.70;;
78222;SDS011;67497;53.058;21.618;2023-04-01T21:49:04;22.10;;;8.05;;
78222;SDS011;67497;53.058;21.618;2023-04-01T22:08:28;16.48;;;8.35;;
78222;SDS011;67497;53.058;21.618;2023-04-01T22:12:36;18.60;;;8.07;;
78222;SDS011;67497;53.058;21.618;2023-04-01T22:14:43;14.55;;;6.60;;
78222;SDS011;67497;53.058;21.618;2023-04-01T22:28:32;13.70;;;7.38;;
78222;SDS011;67497;53.058;21.618;2023-04-01T22:30:42;14.65;;;7.20;;
78222;SDS011;67497;53.058;21.618;2023-04-01T22:39:50;16.75;;;6.05;;
78222;SDS011;67497;53.058;21.618;2023-04-01T22:44:22;14.25;;;7.10;;
78222;SDS011;67497;53.058;21.618;2023-04-01T22:56:13;14.07;;;6.00;;
78222;SDS011;67497;53.058;21.618;2023-04-01T23:01:06;15.77;;;6.82;;
78222;SDS011;67497;53.058;21.618;2023-04-01T23:03:17;11.60;;;5.35;;
78222;SDS011;67497;53.058;21.618;2023-04-01T23:05:21;13.32;;;6.00;;
78222;SDS011;67497;53.058;21.618;2023-04-01T23:07:35;13.48;;;5.97;;
78222;SDS011;67497;53.058;21.618;2023-04-01T23:09:49;15.10;;;6.93;;
78222;SDS011;67497;53.058;21.618;2023-04-01T23:12:13;12.30;;;5.35;;
78222;SDS011;67497;53.058;21.618;2023-04-01T23:16:30;14.05;;;5.40;;
78222;SDS011;67497;53.058;21.618;2023-04-01T23:18:37;14.32;;;5.70;;
78222;SDS011;67497;53.058;21.618;2023-04-01T23:20:50;11.18;;;5.82;;
78222;SDS011;67497;53.058;21.618;2023-04-01T23:25:39;10.85;;;5.28;;
78222;SDS011;67497;53.058;21.618;2023-04-01T23:30:45;8.75;;;5.15;;
78222;SDS011;67497;53.058;21.618;2023-04-01T23:32:40;9.25;;;5.13;;
78222;SDS011;67497;53.058;21.618;2023-04-01T23:34:40;9.90;;;4.90;;
78222;SDS011;67497;53.058;21.618;2023-04-01T23:36:51;10.70;;;5.55;;
78222;SDS011;67497;53.058;21.618;2023-04-01T23:38:55;12.27;;;5.70;;